Itaiba, Brazil
Current Conditions -  °F | °C
As of 1:00 PM on Sunday 25 Jan 2015 (Local Time) from SBUF Reporting Station
Few Clouds Few Clouds  
Wind Chill: 95°   Ceiling: Unl
Heat Index: 96°   Visibility: 6mi
Dew Point: 63°   Wind: 10mph
Humidity: 34%   Direction: 120°ESE
Pressure: 29.91"   Gusts: NA
Location:  8.95°S, 37.42°W
Report Text: SBUF 251600Z 12009KT 9999 FEW021 35/17 Q1013
Loading
Personal Weather Stations






























Interactive Weather Map New forecast layout! Learn more

10-Day Weather Forecast

Advertisements
Track Severe Weather on mobile